createdAt,value
2023-03-17T00:04:37.227Z,3.47
2023-03-17T00:09:42.723Z,3.80
2023-03-17T00:14:47.551Z,4.55
2023-03-17T00:19:51.793Z,7.55
2023-03-17T00:24:57.095Z,7.07
2023-03-17T00:30:01.236Z,5.57
2023-03-17T00:35:06.171Z,11.52
2023-03-17T00:40:17.431Z,7.57
2023-03-17T00:45:23.519Z,4.78
2023-03-17T00:50:29.733Z,4.03
2023-03-17T00:55:35.279Z,3.55
2023-03-17T01:00:39.909Z,2.97
2023-03-17T01:05:46.899Z,2.35
2023-03-17T01:10:52.185Z,2.17
2023-03-17T01:15:58.263Z,2.72
2023-03-17T01:21:02.283Z,3.38
2023-03-17T01:26:08.231Z,3.78
2023-03-17T01:31:12.895Z,4.15
2023-03-17T01:36:17.881Z,2.72
2023-03-17T01:41:23.427Z,2.97
2023-03-17T01:46:30.841Z,2.45
2023-03-17T01:51:39.946Z,2.63
2023-03-17T01:56:50.146Z,2.92
2023-03-17T02:01:58.819Z,2.10
2023-03-17T02:07:05.128Z,3.05
2023-03-17T02:12:12.262Z,2.53
2023-03-17T02:17:16.262Z,3.08
2023-03-17T02:22:22.072Z,5.45
2023-03-17T02:27:33.923Z,2.03
2023-03-17T02:32:38.707Z,2.92
2023-03-17T02:37:46.211Z,2.83
2023-03-17T02:42:51.452Z,2.92
2023-03-17T02:47:57.291Z,2.83
2023-03-17T02:53:02.950Z,2.92
2023-03-17T02:58:06.861Z,3.13
2023-03-17T03:03:10.847Z,2.25
2023-03-17T03:08:17.747Z,3.97
2023-03-17T03:13:21.962Z,4.25
2023-03-17T03:18:26.205Z,3.65
2023-03-17T03:23:32.100Z,2.40
2023-03-17T03:28:36.450Z,3.30
2023-03-17T03:33:40.620Z,5.88
2023-03-17T03:38:46.400Z,5.63
2023-03-17T03:43:50.531Z,6.20
2023-03-17T03:48:56.299Z,4.43
2023-03-17T03:54:02.507Z,5.20
2023-03-17T03:59:07.333Z,5.28
2023-03-17T04:04:11.275Z,4.25
2023-03-17T04:09:16.851Z,4.05
2023-03-17T04:14:21.191Z,4.68
2023-03-17T04:19:25.433Z,4.07
2023-03-17T04:24:30.921Z,6.55
2023-03-17T04:29:35.564Z,5.25
2023-03-17T04:34:40.969Z,8.25
2023-03-17T04:39:46.460Z,10.90
2023-03-17T04:44:50.817Z,9.80
2023-03-17T04:49:54.994Z,11.98
2023-03-17T04:55:00.487Z,8.95
2023-03-17T05:00:09.945Z,5.43
2023-03-17T05:10:21.950Z,4.13
2023-03-17T05:15:26.425Z,8.02
2023-03-17T05:20:30.526Z,9.35
2023-03-17T05:25:38.737Z,8.65
2023-03-17T05:30:44.840Z,10.20
2023-03-17T05:35:48.945Z,9.98
2023-03-17T05:40:54.824Z,10.80
2023-03-17T05:45:59.293Z,12.50
2023-03-17T05:51:03.971Z,10.70
2023-03-17T05:56:10.015Z,9.82
2023-03-17T06:01:14.756Z,11.18
2023-03-17T06:06:19.025Z,10.52
2023-03-17T06:11:24.732Z,7.18
2023-03-17T06:16:30.877Z,7.97
2023-03-17T06:21:35.627Z,13.45
2023-03-17T06:26:42.625Z,9.35
2023-03-17T06:31:51.039Z,6.18
2023-03-17T06:36:55.015Z,8.45
2023-03-17T06:42:02.078Z,10.90
2023-03-17T06:47:06.310Z,11.02
2023-03-17T06:52:10.556Z,7.78
2023-03-17T06:57:16.967Z,3.92
2023-03-17T07:02:21.120Z,2.78
2023-03-17T07:07:25.320Z,2.90
2023-03-17T07:12:30.702Z,3.67
2023-03-17T07:17:35.165Z,2.30
2023-03-17T07:22:39.388Z,3.88
2023-03-17T07:27:44.767Z,3.60
2023-03-17T07:32:48.972Z,3.13
2023-03-17T07:37:53.301Z,2.90
2023-03-17T07:42:58.864Z,3.20
2023-03-17T07:48:05.167Z,2.80
2023-03-17T07:53:09.677Z,2.20
2023-03-17T07:58:15.991Z,4.05
2023-03-17T08:03:20.523Z,2.90
2023-03-17T08:08:25.581Z,3.83
2023-03-17T08:13:31.179Z,3.67
2023-03-17T08:18:35.351Z,2.33
2023-03-17T08:23:40.562Z,2.88
2023-03-17T08:28:46.351Z,2.55
2023-03-17T08:33:52.785Z,3.22
2023-03-17T08:38:57.221Z,2.97
2023-03-17T08:44:03.861Z,2.60
2023-03-17T08:49:08.474Z,5.15
2023-03-17T08:54:13.146Z,3.30
2023-03-17T08:59:18.591Z,3.45
2023-03-17T09:04:23.872Z,3.03
2023-03-17T09:09:28.229Z,3.13
2023-03-17T09:14:42.917Z,2.33
2023-03-17T09:19:48.260Z,3.00
2023-03-17T09:24:53.251Z,3.13
2023-03-17T09:29:58.907Z,2.90
2023-03-17T09:35:04.003Z,2.47
2023-03-17T09:40:09.607Z,2.55
2023-03-17T09:45:24.150Z,2.20
2023-03-17T09:50:30.505Z,1.60
2023-03-17T09:55:38.271Z,1.10
2023-03-17T10:00:45.239Z,1.83
2023-03-17T10:05:49.296Z,2.25
2023-03-17T10:10:59.538Z,2.08
2023-03-17T10:16:09.868Z,2.28
2023-03-17T10:21:19.275Z,1.40
2023-03-17T10:31:35.605Z,3.83
2023-03-17T10:36:45.798Z,2.70
2023-03-17T10:41:57.066Z,3.70
2023-03-17T10:47:02.567Z,2.85
2023-03-17T10:52:09.213Z,2.30
2023-03-17T10:57:15.476Z,1.33
2023-03-17T11:02:24.784Z,1.30
2023-03-17T11:07:32.661Z,2.88
2023-03-17T11:12:40.956Z,1.23
2023-03-17T11:17:56.417Z,1.63
2023-03-17T11:23:07.578Z,1.90
2023-03-17T11:28:35.142Z,2.45
2023-03-17T11:33:49.779Z,3.30
2023-03-17T11:39:00.326Z,2.20
2023-03-17T11:44:34.152Z,2.10
2023-03-17T11:49:40.988Z,2.42
2023-03-17T11:54:54.582Z,1.73
2023-03-17T12:00:05.133Z,1.25
2023-03-17T12:05:23.184Z,1.50
2023-03-17T12:10:34.571Z,2.75
2023-03-17T12:15:45.926Z,2.17
2023-03-17T12:20:56.956Z,2.15
2023-03-17T12:26:07.992Z,1.90
2023-03-17T12:31:15.275Z,2.30
2023-03-17T12:36:22.424Z,2.63
2023-03-17T12:41:38.339Z,2.40
2023-03-17T12:47:02.472Z,2.65
2023-03-17T12:52:28.316Z,2.10
2023-03-17T12:57:41.126Z,1.92
2023-03-17T13:02:47.957Z,2.78
2023-03-17T13:07:57.701Z,2.30
2023-03-17T13:13:37.885Z,2.92
2023-03-17T13:18:53.413Z,3.35
2023-03-17T13:24:36.227Z,3.05
2023-03-17T13:29:43.992Z,3.10
2023-03-17T13:34:52.901Z,3.30
2023-03-17T13:40:17.770Z,4.35
2023-03-17T13:45:33.408Z,2.75
2023-03-17T13:50:41.285Z,6.85
2023-03-17T13:56:12.069Z,3.10
2023-03-17T14:01:16.760Z,2.42
2023-03-17T14:06:24.394Z,3.10
2023-03-17T14:11:36.628Z,3.75
2023-03-17T14:16:46.865Z,3.60
2023-03-17T14:21:50.910Z,2.85
2023-03-17T14:26:57.003Z,3.70
2023-03-17T14:32:06.154Z,2.22
2023-03-17T14:37:12.890Z,3.08
2023-03-17T14:42:21.156Z,2.95
2023-03-17T14:47:27.348Z,2.97
2023-03-17T14:52:35.958Z,3.30
2023-03-17T14:57:41.617Z,2.03
2023-03-17T15:02:56.597Z,2.35
2023-03-17T15:08:02.786Z,2.00
2023-03-17T15:13:13.537Z,2.42
2023-03-17T15:18:21.259Z,2.22
2023-03-17T15:23:42.382Z,2.15
2023-03-17T15:28:48.286Z,3.40
2023-03-17T15:33:53.039Z,4.25
2023-03-17T15:38:57.498Z,3.22
2023-03-17T15:44:05.159Z,4.13
2023-03-17T15:49:11.649Z,4.75
2023-03-17T15:54:17.902Z,2.58
2023-03-17T15:59:23.646Z,2.75
2023-03-17T16:04:27.820Z,4.30
2023-03-17T16:09:34.338Z,3.80
2023-03-17T16:14:40.244Z,4.35
2023-03-17T16:19:45.061Z,5.22
2023-03-17T16:24:49.516Z,4.70
2023-03-17T16:29:54.921Z,5.03
2023-03-17T16:34:58.957Z,3.80
2023-03-17T16:40:03.047Z,6.68
2023-03-17T16:45:21.661Z,4.30
2023-03-17T16:50:29.659Z,11.70
2023-03-17T16:55:34.481Z,12.80
2023-03-17T17:00:41.047Z,12.07
2023-03-17T17:05:48.458Z,7.03
2023-03-17T17:10:52.933Z,7.18
2023-03-17T17:15:58.575Z,12.80
2023-03-17T17:21:03.896Z,17.80
2023-03-17T17:26:08.014Z,25.30
2023-03-17T17:31:13.684Z,13.52
2023-03-17T17:36:18.674Z,15.85
2023-03-17T17:41:22.889Z,20.55
2023-03-17T17:46:28.745Z,21.17
2023-03-17T17:51:33.360Z,20.05
2023-03-17T17:56:40.249Z,29.85
2023-03-17T18:01:46.102Z,19.35
2023-03-17T18:06:50.473Z,30.13
2023-03-17T18:11:54.910Z,24.83
2023-03-17T18:17:00.786Z,21.38
2023-03-17T18:22:05.190Z,17.75
2023-03-17T18:27:09.865Z,23.05
2023-03-17T18:32:15.434Z,10.18
2023-03-17T18:37:20.196Z,14.52
2023-03-17T18:42:25.067Z,15.60
2023-03-17T18:47:30.598Z,10.63
2023-03-17T18:52:35.849Z,14.52
2023-03-17T18:57:45.106Z,18.90
2023-03-17T19:02:50.876Z,17.42
2023-03-17T19:07:55.457Z,12.77
2023-03-17T19:13:00.024Z,7.63
2023-03-17T19:18:05.702Z,5.53
2023-03-17T19:23:10.219Z,7.65
2023-03-17T19:28:14.674Z,20.05
2023-03-17T19:33:20.648Z,15.93
2023-03-17T19:38:25.291Z,9.93
2023-03-17T19:43:40.292Z,11.60
2023-03-17T19:48:47.353Z,10.05
2023-03-17T19:53:51.545Z,18.75
2023-03-17T19:58:56.872Z,20.50
2023-03-17T20:04:02.711Z,15.30
2023-03-17T20:09:09.067Z,17.60
2023-03-17T20:14:15.729Z,14.25
2023-03-17T20:19:24.522Z,12.45
2023-03-17T20:24:31.883Z,8.10
2023-03-17T20:29:36.070Z,11.77
2023-03-17T20:34:44.289Z,18.17
2023-03-17T20:39:48.470Z,20.08
2023-03-17T20:44:53.315Z,17.55
2023-03-17T20:49:59.682Z,16.25
2023-03-17T20:55:05.979Z,9.65
2023-03-17T21:00:16.573Z,14.02
2023-03-17T21:05:23.959Z,12.15
2023-03-17T21:10:29.808Z,10.75
2023-03-17T21:15:33.860Z,7.05
2023-03-17T21:20:39.498Z,6.47
2023-03-17T21:25:44.011Z,6.72
2023-03-17T21:30:51.619Z,6.95
2023-03-17T21:35:59.052Z,5.93
2023-03-17T21:41:22.477Z,7.45
2023-03-17T21:46:31.902Z,8.00
2023-03-17T21:51:37.546Z,10.18
2023-03-17T21:56:41.778Z,11.43
2023-03-17T22:01:46.332Z,10.85
2023-03-17T22:06:52.464Z,8.48
2023-03-17T22:11:56.758Z,9.32
2023-03-17T22:17:01.838Z,13.18
2023-03-17T22:22:08.591Z,5.88
2023-03-17T22:27:12.692Z,7.18
2023-03-17T22:32:16.687Z,7.90
2023-03-17T22:37:22.086Z,15.43
2023-03-17T22:42:26.533Z,13.40
2023-03-17T22:47:30.885Z,7.80
2023-03-17T22:52:37.963Z,7.97
2023-03-17T22:57:42.106Z,13.38
2023-03-17T23:02:47.423Z,12.38
2023-03-17T23:07:52.951Z,12.50
2023-03-17T23:12:57.039Z,12.48
2023-03-17T23:18:01.797Z,10.73
2023-03-17T23:23:08.493Z,7.43
2023-03-17T23:28:12.964Z,9.18
2023-03-17T23:33:21.188Z,7.75
2023-03-17T23:38:26.872Z,8.10
2023-03-17T23:43:31.061Z,7.05
2023-03-17T23:48:35.623Z,5.22
2023-03-17T23:53:41.850Z,5.45
2023-03-17T23:58:45.967Z,7.90
